sensor_id;sensor_type;location;lat;lon;timestamp;pressure;altitude;pressure_sealevel;temperature;humidity
42603;BME280;28233;55.748;48.752;2023-06-24T00:01:50;99063.75;;;14.16;39.63
42603;BME280;28233;55.748;48.752;2023-06-24T00:03:54;99069.63;;;14.15;40.19
42603;BME280;28233;55.748;48.752;2023-06-24T00:05:57;99060.09;;;14.12;40.23
42603;BME280;28233;55.748;48.752;2023-06-24T00:08:00;99067.56;;;14.12;40.19
42603;BME280;28233;55.748;48.752;2023-06-24T00:10:05;99065.53;;;14.09;40.79
42603;BME280;28233;55.748;48.752;2023-06-24T00:12:09;99073.38;;;14.07;40.94
42603;BME280;28233;55.748;48.752;2023-06-24T00:14:30;99069.81;;;14.06;40.90
42603;BME280;28233;55.748;48.752;2023-06-24T00:16:34;99067.84;;;14.07;41.21
42603;BME280;28233;55.748;48.752;2023-06-24T00:18:38;99071.41;;;14.07;41.49
42603;BME280;28233;55.748;48.752;2023-06-24T00:20:44;99065.53;;;14.09;41.61
42603;BME280;28233;55.748;48.752;2023-06-24T00:22:47;99069.88;;;14.10;41.75
42603;BME280;28233;55.748;48.752;2023-06-24T00:24:51;99065.16;;;14.10;41.82
42603;BME280;28233;55.748;48.752;2023-06-24T00:26:55;99070.00;;;14.13;41.81
42603;BME280;28233;55.748;48.752;2023-06-24T00:28:58;99067.22;;;14.13;41.84
42603;BME280;28233;55.748;48.752;2023-06-24T00:31:01;99067.22;;;14.13;41.86
42603;BME280;28233;55.748;48.752;2023-06-24T00:33:05;99073.56;;;14.14;41.89
42603;BME280;28233;55.748;48.752;2023-06-24T00:35:11;99068.38;;;14.12;41.81
42603;BME280;28233;55.748;48.752;2023-06-24T00:37:17;99067.22;;;14.13;41.91
42603;BME280;28233;55.748;48.752;2023-06-24T00:39:20;99067.22;;;14.13;42.11
42603;BME280;28233;55.748;48.752;2023-06-24T00:41:23;99069.16;;;14.13;42.29
42603;BME280;28233;55.748;48.752;2023-06-24T00:43:26;99067.22;;;14.13;42.25
42603;BME280;28233;55.748;48.752;2023-06-24T00:45:29;99061.78;;;14.17;42.27
42603;BME280;28233;55.748;48.752;2023-06-24T00:47:36;99053.94;;;14.19;41.97
42603;BME280;28233;55.748;48.752;2023-06-24T00:49:39;99064.72;;;14.24;42.19
42603;BME280;28233;55.748;48.752;2023-06-24T00:51:41;99062.41;;;14.26;42.13
42603;BME280;28233;55.748;48.752;2023-06-24T00:53:53;99058.13;;;14.29;41.73
42603;BME280;28233;55.748;48.752;2023-06-24T00:55:58;99062.91;;;14.32;41.97
42603;BME280;28233;55.748;48.752;2023-06-24T00:58:05;99067.03;;;14.38;42.11
42603;BME280;28233;55.748;48.752;2023-06-24T01:00:08;99059.97;;;14.41;41.86
42603;BME280;28233;55.748;48.752;2023-06-24T01:02:15;99058.09;;;14.45;42.04
42603;BME280;28233;55.748;48.752;2023-06-24T01:04:18;99057.81;;;14.50;42.04
42603;BME280;28233;55.748;48.752;2023-06-24T01:06:22;99052.28;;;14.50;41.73
42603;BME280;28233;55.748;48.752;2023-06-24T01:08:25;99055.69;;;14.59;41.64
42603;BME280;28233;55.748;48.752;2023-06-24T01:10:28;99058.97;;;14.65;41.60
42603;BME280;28233;55.748;48.752;2023-06-24T01:12:40;99062.28;;;14.70;41.40
42603;BME280;28233;55.748;48.752;2023-06-24T01:14:46;99056.03;;;14.73;41.21
42603;BME280;28233;55.748;48.752;2023-06-24T01:17:19;99049.41;;;14.78;41.32
42603;BME280;28233;55.748;48.752;2023-06-24T01:19:54;99051.88;;;14.83;41.31
42603;BME280;28233;55.748;48.752;2023-06-24T01:31:41;99050.41;;;15.05;40.94
42603;BME280;28233;55.748;48.752;2023-06-24T01:33:52;99051.63;;;15.08;41.00
42603;BME280;28233;55.748;48.752;2023-06-24T01:35:58;99047.78;;;15.12;40.81
42603;BME280;28233;55.748;48.752;2023-06-24T01:38:17;99047.03;;;15.15;40.93
42603;BME280;28233;55.748;48.752;2023-06-24T01:40:32;99054.59;;;15.18;40.88
42603;BME280;28233;55.748;48.752;2023-06-24T01:42:39;99059.06;;;15.23;40.79
42603;BME280;28233;55.748;48.752;2023-06-24T01:44:45;99054.75;;;15.26;40.77
42603;BME280;28233;55.748;48.752;2023-06-24T01:46:51;99049.31;;;15.29;40.91
42603;BME280;28233;55.748;48.752;2023-06-24T01:49:01;99051.34;;;15.32;40.40
42603;BME280;28233;55.748;48.752;2023-06-24T01:51:23;99055.78;;;15.37;40.55
42603;BME280;28233;55.748;48.752;2023-06-24T01:53:27;99050.69;;;15.39;40.71
42603;BME280;28233;55.748;48.752;2023-06-24T01:55:32;99044.03;;;15.43;40.49
42603;BME280;28233;55.748;48.752;2023-06-24T01:57:37;99044.94;;;15.48;40.46
42603;BME280;28233;55.748;48.752;2023-06-24T01:59:45;99050.50;;;15.51;40.85
42603;BME280;28233;55.748;48.752;2023-06-24T02:01:50;99045.84;;;15.55;40.20
42603;BME280;28233;55.748;48.752;2023-06-24T02:03:56;99041.19;;;15.59;40.79
42603;BME280;28233;55.748;48.752;2023-06-24T02:06:00;99042.84;;;15.64;40.64
42603;BME280;28233;55.748;48.752;2023-06-24T02:08:05;99045.69;;;15.68;40.51
42603;BME280;28233;55.748;48.752;2023-06-24T02:10:11;99044.25;;;15.74;40.54
42603;BME280;28233;55.748;48.752;2023-06-24T02:12:15;99053.84;;;15.80;40.59
42603;BME280;28233;55.748;48.752;2023-06-24T02:14:19;99053.97;;;15.87;40.37
42603;BME280;28233;55.748;48.752;2023-06-24T02:16:23;99052.16;;;15.95;40.40
42603;BME280;28233;55.748;48.752;2023-06-24T02:18:27;99053.09;;;16.06;40.21
42603;BME280;28233;55.748;48.752;2023-06-24T02:20:35;99053.72;;;16.19;40.08
42603;BME280;28233;55.748;48.752;2023-06-24T02:22:39;99049.16;;;16.30;39.91
42603;BME280;28233;55.748;48.752;2023-06-24T02:24:43;99050.50;;;16.40;39.49
42603;BME280;28233;55.748;48.752;2023-06-24T02:26:47;99053.44;;;16.51;39.23
42603;BME280;28233;55.748;48.752;2023-06-24T02:28:50;99055.94;;;16.59;39.12
42603;BME280;28233;55.748;48.752;2023-06-24T02:30:54;99060.44;;;16.67;39.08
42603;BME280;28233;55.748;48.752;2023-06-24T02:32:57;99054.16;;;16.74;39.05
42603;BME280;28233;55.748;48.752;2023-06-24T02:35:00;99057.38;;;16.76;38.58
42603;BME280;28233;55.748;48.752;2023-06-24T02:37:05;99051.97;;;16.83;38.25
42603;BME280;28233;55.748;48.752;2023-06-24T02:39:08;99055.59;;;16.87;38.11
42603;BME280;28233;55.748;48.752;2023-06-24T02:41:11;99051.25;;;16.90;38.37
42603;BME280;28233;55.748;48.752;2023-06-24T02:43:14;99056.88;;;16.94;38.57
42603;BME280;28233;55.748;48.752;2023-06-24T02:45:17;99060.88;;;16.96;38.52
42603;BME280;28233;55.748;48.752;2023-06-24T02:47:21;99055.78;;;17.02;38.26
42603;BME280;28233;55.748;48.752;2023-06-24T02:49:25;99059.41;;;17.06;38.43
42603;BME280;28233;55.748;48.752;2023-06-24T02:51:28;99057.94;;;17.16;38.53
42603;BME280;28233;55.748;48.752;2023-06-24T02:53:31;99058.47;;;17.28;38.23
42603;BME280;28233;55.748;48.752;2023-06-24T02:55:34;99057.06;;;17.42;37.93
42603;BME280;28233;55.748;48.752;2023-06-24T02:57:38;99056.81;;;17.54;37.88
42603;BME280;28233;55.748;48.752;2023-06-24T02:59:42;99063.28;;;17.65;37.88
42603;BME280;28233;55.748;48.752;2023-06-24T03:01:45;99057.78;;;17.72;37.86
42603;BME280;28233;55.748;48.752;2023-06-24T03:03:49;99060.81;;;17.94;37.68
42603;BME280;28233;55.748;48.752;2023-06-24T03:05:53;99058.16;;;18.08;37.11
42603;BME280;28233;55.748;48.752;2023-06-24T03:07:57;99051.50;;;18.16;37.29
42603;BME280;28233;55.748;48.752;2023-06-24T03:10:02;99055.19;;;18.31;36.89
42603;BME280;28233;55.748;48.752;2023-06-24T03:12:06;99056.13;;;18.46;36.54
42603;BME280;28233;55.748;48.752;2023-06-24T03:14:10;99050.59;;;18.53;36.76
42603;BME280;28233;55.748;48.752;2023-06-24T03:16:14;99066.94;;;18.58;36.78
42603;BME280;28233;55.748;48.752;2023-06-24T03:18:17;99064.16;;;18.58;36.74
42603;BME280;28233;55.748;48.752;2023-06-24T03:20:20;99069.78;;;18.69;36.75
42603;BME280;28233;55.748;48.752;2023-06-24T03:22:24;99066.31;;;18.79;36.89
42603;BME280;28233;55.748;48.752;2023-06-24T03:24:26;99075.91;;;18.89;36.67
42603;BME280;28233;55.748;48.752;2023-06-24T03:26:38;99073.53;;;18.95;36.82
42603;BME280;28233;55.748;48.752;2023-06-24T03:28:40;99077.56;;;19.05;37.14
42603;BME280;28233;55.748;48.752;2023-06-24T03:30:43;99082.00;;;19.13;37.18
42603;BME280;28233;55.748;48.752;2023-06-24T03:32:46;99081.66;;;19.21;37.36
42603;BME280;28233;55.748;48.752;2023-06-24T03:34:49;99087.63;;;19.27;36.67
42603;BME280;28233;55.748;48.752;2023-06-24T03:36:53;99081.28;;;19.30;36.85
42603;BME280;28233;55.748;48.752;2023-06-24T03:38:59;99091.59;;;19.22;37.00
42603;BME280;28233;55.748;48.752;2023-06-24T03:41:02;99086.03;;;19.22;37.14
42603;BME280;28233;55.748;48.752;2023-06-24T03:43:05;99085.19;;;19.15;37.69
42603;BME280;28233;55.748;48.752;2023-06-24T03:45:08;99094.78;;;19.25;37.49
42603;BME280;28233;55.748;48.752;2023-06-24T03:47:11;99098.78;;;19.27;37.39
42603;BME280;28233;55.748;48.752;2023-06-24T03:49:13;99088.84;;;19.30;37.24
42603;BME280;28233;55.748;48.752;2023-06-24T03:51:16;99095.22;;;19.34;37.59
42603;BME280;28233;55.748;48.752;2023-06-24T03:53:19;99100.84;;;19.41;37.35
42603;BME280;28233;55.748;48.752;2023-06-24T03:55:22;99092.06;;;19.39;37.81
42603;BME280;28233;55.748;48.752;2023-06-24T03:57:25;99090.84;;;19.36;37.77
42603;BME280;28233;55.748;48.752;2023-06-24T03:59:28;99086.47;;;19.35;38.10
42603;BME280;28233;55.748;48.752;2023-06-24T04:01:30;99082.91;;;19.38;37.95
42603;BME280;28233;55.748;48.752;2023-06-24T04:03:35;99090.84;;;19.40;38.23
42603;BME280;28233;55.748;48.752;2023-06-24T04:05:38;99084.09;;;19.34;38.28
42603;BME280;28233;55.748;48.752;2023-06-24T04:07:41;99086.06;;;19.37;38.46
42603;BME280;28233;55.748;48.752;2023-06-24T04:09:49;99086.50;;;19.46;38.36
42603;BME280;28233;55.748;48.752;2023-06-24T04:11:52;99081.38;;;19.55;38.45
42603;BME280;28233;55.748;48.752;2023-06-24T04:13:55;99079.41;;;19.59;38.75
42603;BME280;28233;55.748;48.752;2023-06-24T04:15:58;99075.44;;;19.68;38.74
42603;BME280;28233;55.748;48.752;2023-06-24T04:18:01;99080.31;;;19.85;38.96
42603;BME280;28233;55.748;48.752;2023-06-24T04:20:04;99073.13;;;19.98;38.90
42603;BME280;28233;55.748;48.752;2023-06-24T04:22:11;99082.31;;;20.10;38.47
42603;BME280;28233;55.748;48.752;2023-06-24T04:24:14;99080.31;;;20.10;38.68
42603;BME280;28233;55.748;48.752;2023-06-24T04:26:17;99090.31;;;20.11;37.73
42603;BME280;28233;55.748;48.752;2023-06-24T04:28:20;99093.44;;;19.99;38.30
42603;BME280;28233;55.748;48.752;2023-06-24T04:30:23;99087.91;;;20.02;38.41
42603;BME280;28233;55.748;48.752;2023-06-24T04:32:25;99089.91;;;20.16;38.03
42603;BME280;28233;55.748;48.752;2023-06-24T04:34:28;99086.72;;;20.28;38.01
42603;BME280;28233;55.748;48.752;2023-06-24T04:36:31;99091.91;;;20.34;38.02
42603;BME280;28233;55.748;48.752;2023-06-24T04:38:34;99086.75;;;20.25;37.97
42603;BME280;28233;55.748;48.752;2023-06-24T04:40:37;99081.13;;;20.28;38.32
42603;BME280;28233;55.748;48.752;2023-06-24T04:42:39;99079.97;;;20.37;38.21
42603;BME280;28233;55.748;48.752;2023-06-24T04:44:42;99089.50;;;20.36;37.81
42603;BME280;28233;55.748;48.752;2023-06-24T04:46:45;99093.09;;;20.40;38.13
42603;BME280;28233;55.748;48.752;2023-06-24T04:48:48;99083.94;;;20.43;38.17
42603;BME280;28233;55.748;48.752;2023-06-24T04:50:51;99085.13;;;20.49;38.33
42603;BME280;28233;55.748;48.752;2023-06-24T04:52:56;99085.13;;;20.53;38.45
42603;BME280;28233;55.748;48.752;2023-06-24T04:54:59;99083.94;;;20.54;38.61
42603;BME280;28233;55.748;48.752;2023-06-24T04:57:08;99088.75;;;20.60;37.94
42603;BME280;28233;55.748;48.752;2023-06-24T04:59:11;99089.13;;;20.62;38.54
42603;BME280;28233;55.748;48.752;2023-06-24T05:01:14;99090.31;;;20.68;38.45
42603;BME280;28233;55.748;48.752;2023-06-24T05:03:17;99083.13;;;20.82;38.01
42603;BME280;28233;55.748;48.752;2023-06-24T05:05:19;99093.50;;;20.88;37.83
42603;BME280;28233;55.748;48.752;2023-06-24T05:07:23;99087.50;;;21.01;37.76
42603;BME280;28233;55.748;48.752;2023-06-24T05:09:26;99083.88;;;21.07;38.66
42603;BME280;28233;55.748;48.752;2023-06-24T05:11:29;99085.03;;;21.14;38.34
42603;BME280;28233;55.748;48.752;2023-06-24T05:13:32;99089.41;;;21.18;37.73
42603;BME280;28233;55.748;48.752;2023-06-24T05:15:35;99095.78;;;21.26;37.89
42603;BME280;28233;55.748;48.752;2023-06-24T05:17:39;99087.81;;;21.24;38.27
42603;BME280;28233;55.748;48.752;2023-06-24T05:19:42;99094.22;;;21.14;37.87
42603;BME280;28233;55.748;48.752;2023-06-24T05:21:45;99089.84;;;21.06;38.05
42603;BME280;28233;55.748;48.752;2023-06-24T05:23:48;99084.28;;;21.09;38.25
42603;BME280;28233;55.748;48.752;2023-06-24T05:25:51;99095.81;;;21.15;38.15
42603;BME280;28233;55.748;48.752;2023-06-24T05:27:54;99087.03;;;21.24;37.45
42603;BME280;28233;55.748;48.752;2023-06-24T05:29:56;99087.00;;;21.31;37.51
42603;BME280;28233;55.748;48.752;2023-06-24T05:32:00;99086.97;;;21.38;37.29
42603;BME280;28233;55.748;48.752;2023-06-24T05:34:04;99099.66;;;21.64;37.01
42603;BME280;28233;55.748;48.752;2023-06-24T05:36:07;99094.81;;;21.76;37.05
42603;BME280;28233;55.748;48.752;2023-06-24T05:38:10;99092.28;;;21.95;37.09
42603;BME280;28233;55.748;48.752;2023-06-24T05:40:13;99087.38;;;22.10;36.54
42603;BME280;28233;55.748;48.752;2023-06-24T05:42:16;99085.81;;;22.06;36.48
42603;BME280;28233;55.748;48.752;2023-06-24T05:44:20;99079.88;;;22.04;36.97
42603;BME280;28233;55.748;48.752;2023-06-24T05:46:23;99082.66;;;22.04;37.39
42603;BME280;28233;55.748;48.752;2023-06-24T05:48:25;99077.06;;;22.00;36.61
42603;BME280;28233;55.748;48.752;2023-06-24T05:50:28;99077.34;;;22.16;36.44
42603;BME280;28233;55.748;48.752;2023-06-24T05:52:31;99072.53;;;22.24;36.12
42603;BME280;28233;55.748;48.752;2023-06-24T05:54:34;99070.50;;;22.32;36.46
42603;BME280;28233;55.748;48.752;2023-06-24T05:56:37;99068.66;;;22.04;36.90
42603;BME280;28233;55.748;48.752;2023-06-24T05:58:42;99073.41;;;22.10;36.58
42603;BME280;28233;55.748;48.752;2023-06-24T06:00:45;99070.50;;;22.28;36.33
42603;BME280;28233;55.748;48.752;2023-06-24T06:02:48;99074.13;;;22.25;36.22
42603;BME280;28233;55.748;48.752;2023-06-24T06:04:51;99068.53;;;22.25;36.58
42603;BME280;28233;55.748;48.752;2023-06-24T06:06:53;99062.03;;;22.39;36.62
42603;BME280;28233;55.748;48.752;2023-06-24T06:08:57;99061.59;;;22.44;35.99
42603;BME280;28233;55.748;48.752;2023-06-24T06:11:00;99060.75;;;22.47;36.12
42603;BME280;28233;55.748;48.752;2023-06-24T06:13:06;99061.91;;;22.53;36.12
42603;BME280;28233;55.748;48.752;2023-06-24T06:15:09;99062.16;;;22.66;36.04
42603;BME280;28233;55.748;48.752;2023-06-24T06:17:14;99055.63;;;22.84;35.71
42603;BME280;28233;55.748;48.752;2023-06-24T06:19:16;99043.88;;;22.96;35.11
42603;BME280;28233;55.748;48.752;2023-06-24T06:21:19;99055.31;;;23.12;34.72
42603;BME280;28233;55.748;48.752;2023-06-24T06:23:22;99052.28;;;23.30;34.27
42603;BME280;28233;55.748;48.752;2023-06-24T06:25:25;99047.06;;;23.32;34.23
42603;BME280;28233;55.748;48.752;2023-06-24T06:27:28;99046.31;;;23.28;34.14
42603;BME280;28233;55.748;48.752;2023-06-24T06:29:31;99050.38;;;23.24;34.29
42603;BME280;28233;55.748;48.752;2023-06-24T06:31:33;99056.81;;;23.20;33.76
42603;BME280;28233;55.748;48.752;2023-06-24T06:33:36;99051.72;;;23.12;33.66
42603;BME280;28233;55.748;48.752;2023-06-24T06:35:39;99045.66;;;23.17;33.54
42603;BME280;28233;55.748;48.752;2023-06-24T06:37:42;99050.94;;;23.42;33.57
42603;BME280;28233;55.748;48.752;2023-06-24T06:39:45;99049.31;;;23.45;33.82
42603;BME280;28233;55.748;48.752;2023-06-24T06:41:47;99038.47;;;23.47;34.26
42603;BME280;28233;55.748;48.752;2023-06-24T06:43:52;99047.13;;;23.59;36.03
42603;BME280;28233;55.748;48.752;2023-06-24T06:45:55;99050.22;;;23.65;34.31
42603;BME280;28233;55.748;48.752;2023-06-24T06:47:58;99045.59;;;23.82;33.74
42603;BME280;28233;55.748;48.752;2023-06-24T06:50:03;99047.38;;;23.99;33.05
42603;BME280;28233;55.748;48.752;2023-06-24T06:52:07;99044.75;;;24.12;32.71
42603;BME280;28233;55.748;48.752;2023-06-24T06:54:10;99047.03;;;24.21;32.79
42603;BME280;28233;55.748;48.752;2023-06-24T06:56:38;99044.81;;;24.09;32.64
42603;BME280;28233;55.748;48.752;2023-06-24T06:58:42;99042.41;;;24.11;33.11
42603;BME280;28233;55.748;48.752;2023-06-24T07:00:45;99037.50;;;24.15;32.40
42603;BME280;28233;55.748;48.752;2023-06-24T07:02:50;99039.28;;;24.29;32.13
42603;BME280;28233;55.748;48.752;2023-06-24T07:04:53;99036.66;;;24.41;32.13
42603;BME280;28233;55.748;48.752;2023-06-24T07:06:56;99035.81;;;24.44;32.11
42603;BME280;28233;55.748;48.752;2023-06-24T07:08:59;99035.34;;;24.50;31.40
42603;BME280;28233;55.748;48.752;2023-06-24T07:11:02;99035.16;;;24.60;31.23
42603;BME280;28233;55.748;48.752;2023-06-24T07:13:05;99029.34;;;24.71;30.77
42603;BME280;28233;55.748;48.752;2023-06-24T07:15:11;99034.28;;;24.63;30.29
42603;BME280;28233;55.748;48.752;2023-06-24T07:17:15;99033.78;;;24.68;30.69
42603;BME280;28233;55.748;48.752;2023-06-24T07:19:17;99037.88;;;24.64;30.99
42603;BME280;28233;55.748;48.752;2023-06-24T07:21:20;99036.69;;;24.65;31.27
42603;BME280;28233;55.748;48.752;2023-06-24T07:23:23;99023.56;;;24.78;31.24
42603;BME280;28233;55.748;48.752;2023-06-24T07:25:26;99027.63;;;24.77;32.81
42603;BME280;28233;55.748;48.752;2023-06-24T07:27:30;99028.03;;;24.76;33.41
42603;BME280;28233;55.748;48.752;2023-06-24T07:29:33;99025.19;;;24.79;32.50
42603;BME280;28233;55.748;48.752;2023-06-24T07:31:36;99020.94;;;24.91;32.46
42603;BME280;28233;55.748;48.752;2023-06-24T07:33:39;99013.75;;;25.10;34.00
42603;BME280;28233;55.748;48.752;2023-06-24T07:35:42;99027.59;;;25.21;32.48
42603;BME280;28233;55.748;48.752;2023-06-24T07:37:45;99026.84;;;25.37;32.21
42603;BME280;28233;55.748;48.752;2023-06-24T07:39:48;99024.41;;;25.39;30.99
42603;BME280;28233;55.748;48.752;2023-06-24T07:41:51;99027.72;;;25.34;31.01
42603;BME280;28233;55.748;48.752;2023-06-24T07:43:54;99029.66;;;25.17;30.36
42603;BME280;28233;55.748;48.752;2023-06-24T07:45:57;99030.16;;;24.92;31.08
42603;BME280;28233;55.748;48.752;2023-06-24T07:48:00;99024.03;;;24.77;31.69
42603;BME280;28233;55.748;48.752;2023-06-24T07:50:03;99019.63;;;24.76;30.96
42603;BME280;28233;55.748;48.752;2023-06-24T07:52:08;99023.66;;;24.75;32.78
42603;BME280;28233;55.748;48.752;2023-06-24T07:54:11;99017.31;;;24.71;32.95
42603;BME280;28233;55.748;48.752;2023-06-24T07:56:14;99014.50;;;24.71;33.76
42603;BME280;28233;55.748;48.752;2023-06-24T07:58:18;99011.16;;;24.56;34.55
42603;BME280;28233;55.748;48.752;2023-06-24T08:00:21;99018.16;;;24.44;31.65
42603;BME280;28233;55.748;48.752;2023-06-24T08:02:24;99015.41;;;24.40;31.09
42603;BME280;28233;55.748;48.752;2023-06-24T08:04:28;99016.19;;;24.41;32.45
42603;BME280;28233;55.748;48.752;2023-06-24T08:06:31;99023.91;;;24.37;31.73
42603;BME280;28233;55.748;48.752;2023-06-24T08:08:34;99012.56;;;24.44;31.67
42603;BME280;28233;55.748;48.752;2023-06-24T08:10:38;99014.13;;;24.45;31.49
42603;BME280;28233;55.748;48.752;2023-06-24T08:12:41;99019.16;;;24.57;31.05
42603;BME280;28233;55.748;48.752;2023-06-24T08:14:44;99017.22;;;24.54;31.70
42603;BME280;28233;55.748;48.752;2023-06-24T08:16:46;99014.63;;;24.40;32.76
42603;BME280;28233;55.748;48.752;2023-06-24T08:18:49;99012.22;;;24.38;33.41
42603;BME280;28233;55.748;48.752;2023-06-24T08:20:52;99015.94;;;24.32;32.11
42603;BME280;28233;55.748;48.752;2023-06-24T08:22:55;99007.44;;;24.39;31.52
42603;BME280;28233;55.748;48.752;2023-06-24T08:24:58;99012.91;;;24.46;31.22
42603;BME280;28233;55.748;48.752;2023-06-24T08:27:01;99009.28;;;24.45;32.50
42603;BME280;28233;55.748;48.752;2023-06-24T08:29:04;99013.97;;;24.32;33.33
42603;BME280;28233;55.748;48.752;2023-06-24T08:31:07;99002.50;;;24.23;33.60
42603;BME280;28233;55.748;48.752;2023-06-24T08:33:09;99007.72;;;24.21;32.96
42603;BME280;28233;55.748;48.752;2023-06-24T08:35:12;99002.34;;;24.07;33.28
42603;BME280;28233;55.748;48.752;2023-06-24T08:37:15;99000.69;;;23.86;32.97
42603;BME280;28233;55.748;48.752;2023-06-24T08:39:18;98994.31;;;23.81;32.40
42603;BME280;28233;55.748;48.752;2023-06-24T08:41:22;99003.75;;;23.95;33.48
42603;BME280;28233;55.748;48.752;2023-06-24T08:43:27;98989.28;;;23.96;35.14
42603;BME280;28233;55.748;48.752;2023-06-24T08:45:31;99000.69;;;23.86;33.72
42603;BME280;28233;55.748;48.752;2023-06-24T08:47:35;98991.66;;;23.98;32.35
42603;BME280;28233;55.748;48.752;2023-06-24T08:49:48;98989.78;;;24.15;30.95
42603;BME280;28233;55.748;48.752;2023-06-24T08:54:09;98987.47;;;24.10;33.05
42603;BME280;28233;55.748;48.752;2023-06-24T08:56:13;98994.69;;;24.11;33.90
42603;BME280;28233;55.748;48.752;2023-06-24T08:58:17;98996.63;;;24.14;34.49
42603;BME280;28233;55.748;48.752;2023-06-24T09:00:20;98985.16;;;24.28;34.78
42603;BME280;28233;55.748;48.752;2023-06-24T09:02:23;98985.31;;;24.41;33.63
42603;BME280;28233;55.748;48.752;2023-06-24T09:04:27;98989.41;;;24.36;34.14
42603;BME280;28233;55.748;48.752;2023-06-24T09:06:31;98986.53;;;24.40;35.98
42603;BME280;28233;55.748;48.752;2023-06-24T09:08:34;98989.47;;;24.33;36.01
42603;BME280;28233;55.748;48.752;2023-06-24T09:10:38;98994.06;;;24.23;36.21
42603;BME280;28233;55.748;48.752;2023-06-24T09:12:41;98998.69;;;24.33;35.04
42603;BME280;28233;55.748;48.752;2023-06-24T09:14:48;98987.97;;;24.28;34.72
42603;BME280;28233;55.748;48.752;2023-06-24T09:16:56;98994.69;;;24.11;35.15
42603;BME280;28233;55.748;48.752;2023-06-24T09:18:59;99003.66;;;23.44;35.61
42603;BME280;28233;55.748;48.752;2023-06-24T09:21:02;99004.91;;;23.09;36.08
42603;BME280;28233;55.748;48.752;2023-06-24T09:23:05;99012.00;;;22.83;36.33
42603;BME280;28233;55.748;48.752;2023-06-24T09:25:08;98999.00;;;22.62;36.48
42603;BME280;28233;55.748;48.752;2023-06-24T09:27:12;99001.63;;;22.42;36.61
42603;BME280;28233;55.748;48.752;2023-06-24T09:29:15;98995.84;;;22.14;36.85
42603;BME280;28233;55.748;48.752;2023-06-24T09:31:18;98999.88;;;22.10;37.08
42603;BME280;28233;55.748;48.752;2023-06-24T09:33:22;98990.41;;;21.97;37.20
42603;BME280;28233;55.748;48.752;2023-06-24T09:35:25;98992.16;;;21.76;37.03
42603;BME280;28233;55.748;48.752;2023-06-24T09:37:28;98999.38;;;21.70;37.64
42603;BME280;28233;55.748;48.752;2023-06-24T09:39:38;98989.34;;;21.76;37.88
42603;BME280;28233;55.748;48.752;2023-06-24T09:41:42;98986.13;;;21.78;37.52
42603;BME280;28233;55.748;48.752;2023-06-24T09:43:45;98991.72;;;21.78;37.69
42603;BME280;28233;55.748;48.752;2023-06-24T09:45:48;98993.72;;;21.81;38.03
42603;BME280;28233;55.748;48.752;2023-06-24T09:47:52;98996.91;;;21.83;38.05
42603;BME280;28233;55.748;48.752;2023-06-24T09:49:55;98990.81;;;21.95;37.98
42603;BME280;28233;55.748;48.752;2023-06-24T09:51:59;98994.06;;;21.86;37.77
42603;BME280;28233;55.748;48.752;2023-06-24T09:54:07;98991.66;;;21.88;37.76
42603;BME280;28233;55.748;48.752;2023-06-24T09:56:13;98993.16;;;22.04;38.34
42603;BME280;28233;55.748;48.752;2023-06-24T09:58:18;98994.28;;;22.10;38.40
42603;BME280;28233;55.748;48.752;2023-06-24T10:00:21;98994.72;;;22.05;40.61
42603;BME280;28233;55.748;48.752;2023-06-24T10:02:25;98988.78;;;21.99;44.37
42603;BME280;28233;55.748;48.752;2023-06-24T10:04:29;98999.75;;;21.72;47.04
42603;BME280;28233;55.748;48.752;2023-06-24T10:06:33;98987.53;;;21.44;44.78
42603;BME280;28233;55.748;48.752;2023-06-24T10:08:36;98983.19;;;21.36;43.53
42603;BME280;28233;55.748;48.752;2023-06-24T10:10:39;98972.81;;;21.40;44.01
42603;BME280;28233;55.748;48.752;2023-06-24T10:12:43;98976.38;;;21.44;43.57
42603;BME280;28233;55.748;48.752;2023-06-24T10:14:45;98970.31;;;21.53;43.35
42603;BME280;28233;55.748;48.752;2023-06-24T10:16:49;98970.28;;;21.64;43.87
42603;BME280;28233;55.748;48.752;2023-06-24T10:18:51;98967.75;;;21.80;41.95
42603;BME280;28233;55.748;48.752;2023-06-24T10:20:54;98970.44;;;21.94;41.83
42603;BME280;28233;55.748;48.752;2023-06-24T10:22:57;98969.81;;;22.21;45.85
42603;BME280;28233;55.748;48.752;2023-06-24T10:25:05;98972.03;;;22.41;46.49
42603;BME280;28233;55.748;48.752;2023-06-24T10:27:18;98969.84;;;22.59;46.05
42603;BME280;28233;55.748;48.752;2023-06-24T10:29:32;98966.09;;;22.73;46.77
42603;BME280;28233;55.748;48.752;2023-06-24T10:33:53;98960.69;;;22.89;44.84
42603;BME280;28233;55.748;48.752;2023-06-24T10:35:56;98966.34;;;22.86;45.59
42603;BME280;28233;55.748;48.752;2023-06-24T10:38:00;98970.34;;;22.88;45.81
42603;BME280;28233;55.748;48.752;2023-06-24T10:40:04;98966.63;;;22.95;47.69
42603;BME280;28233;55.748;48.752;2023-06-24T10:44:48;98969.34;;;23.06;46.91
42603;BME280;28233;55.748;48.752;2023-06-24T10:46:54;98975.41;;;22.97;47.12
42603;BME280;28233;55.748;48.752;2023-06-24T10:48:57;98968.41;;;22.82;48.90
42603;BME280;28233;55.748;48.752;2023-06-24T10:51:00;98966.13;;;22.69;51.24
42603;BME280;28233;55.748;48.752;2023-06-24T10:53:08;98953.03;;;22.63;52.02
42603;BME280;28233;55.748;48.752;2023-06-24T10:55:13;98950.25;;;22.59;52.09
42603;BME280;28233;55.748;48.752;2023-06-24T10:57:24;98941.00;;;22.62;51.38
42603;BME280;28233;55.748;48.752;2023-06-24T10:59:28;98934.13;;;22.70;50.97
42603;BME280;28233;55.748;48.752;2023-06-24T11:01:52;98941.34;;;22.68;46.10
42603;BME280;28233;55.748;48.752;2023-06-24T11:03:55;98934.59;;;22.65;45.94
42603;BME280;28233;55.748;48.752;2023-06-24T11:05:57;98937.31;;;22.72;44.08
42603;BME280;28233;55.748;48.752;2023-06-24T11:08:00;98943.19;;;22.82;41.68